createdAt,value
2023-02-19T00:00:16.247Z,100559.56
2023-02-19T00:01:20.371Z,100553.88
2023-02-19T00:02:23.067Z,100580.03
2023-02-19T00:03:25.220Z,100559.28
2023-02-19T00:04:28.064Z,100563.91
2023-02-19T00:05:29.788Z,100579.19
2023-02-19T00:06:34.118Z,100559.72
2023-02-19T00:07:35.838Z,100552.66
2023-02-19T00:08:42.117Z,100547.63
2023-02-19T00:09:43.999Z,100551.50
2023-02-19T00:10:48.130Z,100556.72
2023-02-19T00:11:49.903Z,100552.38
2023-02-19T00:12:52.891Z,100550.78
2023-02-19T00:13:55.824Z,100547.25
2023-02-19T00:14:59.648Z,100554.53
2023-02-19T00:16:06.020Z,100548.50
2023-02-19T00:17:08.802Z,100544.78
2023-02-19T00:18:10.543Z,100543.59
2023-02-19T00:19:15.776Z,100549.69
2023-02-19T00:20:17.810Z,100551.06
2023-02-19T00:21:20.522Z,100554.16
2023-02-19T00:22:22.214Z,100547.81
2023-02-19T00:23:24.936Z,100535.66
2023-02-19T00:24:27.599Z,100544.22
2023-02-19T00:25:29.348Z,100537.25
2023-02-19T00:26:33.810Z,100536.41
2023-02-19T00:27:35.490Z,100541.31
2023-02-19T00:28:38.305Z,100534.06
2023-02-19T00:29:40.102Z,100535.25
2023-02-19T00:30:42.835Z,100538.47
2023-02-19T00:31:46.128Z,100537.53
2023-02-19T00:32:50.762Z,100538.75
2023-02-19T00:33:55.122Z,100532.81
2023-02-19T00:34:56.783Z,100533.28
2023-02-19T00:36:01.310Z,100546.13
2023-02-19T00:37:04.026Z,100556.59
2023-02-19T00:38:05.750Z,100543.00
2023-02-19T00:39:09.575Z,100542.16
2023-02-19T00:40:11.425Z,100549.81
2023-02-19T00:41:20.694Z,100540.09
2023-02-19T00:42:23.710Z,100540.75
2023-02-19T00:43:26.395Z,100542.84
2023-02-19T00:44:28.144Z,100535.53
2023-02-19T00:45:30.855Z,100539.53
2023-02-19T00:46:35.529Z,100537.53
2023-02-19T00:47:38.247Z,100540.56
2023-02-19T00:48:40.072Z,100551.31
2023-02-19T00:49:42.899Z,100544.47
2023-02-19T00:50:44.733Z,100552.63
2023-02-19T00:51:47.559Z,100557.06
2023-02-19T00:52:49.277Z,100558.00
2023-02-19T00:53:52.384Z,100546.47
2023-02-19T00:54:54.198Z,100550.47
2023-02-19T00:55:56.901Z,100553.00
2023-02-19T00:56:59.569Z,100547.53
2023-02-19T00:58:02.686Z,100550.94
2023-02-19T00:59:05.524Z,100566.69
2023-02-19T01:00:08.367Z,100551.63
2023-02-19T01:01:12.500Z,100541.75
2023-02-19T01:02:14.283Z,100549.91
2023-02-19T01:03:16.976Z,100529.72
2023-02-19T01:04:18.698Z,100521.50
2023-02-19T01:05:21.384Z,100529.88
2023-02-19T01:06:23.344Z,100536.84
2023-02-19T01:07:26.120Z,100528.63
2023-02-19T01:08:28.090Z,100537.63
2023-02-19T01:09:30.907Z,100524.41
2023-02-19T01:10:32.645Z,100538.66
2023-02-19T01:11:35.382Z,100522.13
2023-02-19T01:12:37.086Z,100534.91
2023-02-19T01:13:41.813Z,100529.88
2023-02-19T01:14:43.659Z,100559.03
2023-02-19T01:15:46.568Z,100547.59
2023-02-19T01:16:48.331Z,100551.00
2023-02-19T01:17:51.039Z,100527.22
2023-02-19T01:18:52.734Z,100521.38
2023-02-19T01:19:55.379Z,100521.19
2023-02-19T01:20:57.136Z,100526.56
2023-02-19T01:21:59.886Z,100519.84
2023-02-19T01:23:01.635Z,100530.63
2023-02-19T01:24:04.583Z,100534.31
2023-02-19T01:25:06.767Z,100520.91
2023-02-19T01:26:10.838Z,100540.72
2023-02-19T01:27:12.551Z,100527.25
2023-02-19T01:28:15.214Z,100534.50
2023-02-19T01:29:19.240Z,100520.41
2023-02-19T01:30:21.018Z,100524.28
2023-02-19T01:31:25.198Z,100529.31
2023-02-19T01:32:27.997Z,100540.38
2023-02-19T01:33:29.902Z,100528.00
2023-02-19T01:34:34.287Z,100518.25
2023-02-19T01:35:39.174Z,100513.63
2023-02-19T01:36:41.945Z,100524.69
2023-02-19T01:37:43.689Z,100513.72
2023-02-19T01:38:47.077Z,100517.50
2023-02-19T01:39:48.856Z,100519.56
2023-02-19T01:40:56.334Z,100521.66
2023-02-19T01:41:59.579Z,100519.38
2023-02-19T01:43:01.301Z,100508.63
2023-02-19T01:44:07.873Z,100505.69
2023-02-19T01:45:21.270Z,100516.19
2023-02-19T01:46:26.609Z,100524.78
2023-02-19T01:47:28.315Z,100510.81
2023-02-19T01:48:32.868Z,100520.34
2023-02-19T01:49:37.146Z,100507.00
2023-02-19T01:50:43.058Z,100508.53
2023-02-19T01:51:47.482Z,100507.84
2023-02-19T01:52:50.163Z,100508.34
2023-02-19T01:53:54.959Z,100505.88
2023-02-19T01:54:57.978Z,100534.03
2023-02-19T01:56:00.683Z,100503.41
2023-02-19T01:57:06.620Z,100520.97
2023-02-19T01:58:10.213Z,100517.22
2023-02-19T01:59:13.324Z,100519.09
2023-02-19T02:00:16.522Z,100512.03
2023-02-19T02:01:20.740Z,100504.66
2023-02-19T02:02:23.758Z,100508.06
2023-02-19T02:03:26.555Z,100510.59
2023-02-19T02:04:30.550Z,100505.22
2023-02-19T02:05:46.090Z,100495.03
2023-02-19T02:06:50.406Z,100494.28
2023-02-19T02:08:10.795Z,100491.06
2023-02-19T02:09:31.452Z,100490.28
2023-02-19T02:10:35.046Z,100493.59
2023-02-19T02:11:36.806Z,100488.97
2023-02-19T02:12:39.482Z,100490.50
2023-02-19T02:13:41.233Z,100486.97
2023-02-19T02:14:46.607Z,100482.31
2023-02-19T02:15:52.811Z,100479.28
2023-02-19T02:17:03.111Z,100480.44
2023-02-19T02:18:10.562Z,100478.09
2023-02-19T02:19:31.460Z,100467.47
2023-02-19T02:20:40.133Z,100467.75
2023-02-19T02:21:59.994Z,100466.44
2023-02-19T02:23:09.021Z,100464.34
2023-02-19T02:24:26.408Z,100457.69
2023-02-19T02:25:56.464Z,100463.56
2023-02-19T02:27:22.792Z,100448.38
2023-02-19T02:28:44.491Z,100451.28
2023-02-19T02:30:25.369Z,100454.81
2023-02-19T02:31:30.430Z,100455.81
2023-02-19T02:32:35.590Z,100455.66
2023-02-19T02:33:42.490Z,100456.00
2023-02-19T02:34:48.377Z,100447.97
2023-02-19T02:35:54.180Z,100453.06
2023-02-19T02:36:56.859Z,100452.94
2023-02-19T02:38:02.472Z,100451.41
2023-02-19T02:39:07.240Z,100453.28
2023-02-19T02:40:12.084Z,100453.91
2023-02-19T02:41:14.767Z,100447.31
2023-02-19T02:42:29.350Z,100450.00
2023-02-19T02:43:31.281Z,100460.28
2023-02-19T02:44:35.929Z,100454.66
2023-02-19T02:45:40.008Z,100466.97
2023-02-19T02:46:45.221Z,100468.50
2023-02-19T02:47:49.694Z,100461.66
2023-02-19T02:48:55.440Z,100457.78
2023-02-19T02:50:05.208Z,100463.16
2023-02-19T02:51:13.882Z,100452.44
2023-02-19T02:52:37.199Z,100458.47
2023-02-19T02:54:01.727Z,100447.50
2023-02-19T02:55:08.102Z,100441.94
2023-02-19T02:56:11.539Z,100447.78
2023-02-19T02:57:15.018Z,100448.09
2023-02-19T02:58:18.169Z,100450.03
2023-02-19T02:59:22.275Z,100441.84
2023-02-19T03:00:25.803Z,100439.59
2023-02-19T03:01:49.432Z,100437.88
2023-02-19T03:02:51.148Z,100425.13
2023-02-19T03:03:58.311Z,100426.19
2023-02-19T03:05:22.132Z,100423.47
2023-02-19T03:06:27.129Z,100414.84
2023-02-19T03:07:36.487Z,100413.81
2023-02-19T03:08:41.853Z,100416.16
2023-02-19T03:09:44.765Z,100412.22
2023-02-19T03:10:52.877Z,100420.72
2023-02-19T03:12:14.022Z,100410.13
2023-02-19T03:13:37.303Z,100417.31
2023-02-19T03:15:02.592Z,100426.84
2023-02-19T03:16:27.975Z,100429.97
2023-02-19T03:17:52.594Z,100429.38
2023-02-19T03:19:13.434Z,100427.31
2023-02-19T03:20:17.270Z,100411.72
2023-02-19T03:21:21.073Z,100417.88
2023-02-19T03:22:26.471Z,100422.31
2023-02-19T03:23:44.867Z,100413.81
2023-02-19T03:25:09.167Z,100424.09
2023-02-19T03:26:11.109Z,100420.72
2023-02-19T03:27:15.622Z,100421.47
2023-02-19T03:28:18.329Z,100421.75
2023-02-19T03:29:26.221Z,100423.81
2023-02-19T03:30:31.047Z,100429.56
2023-02-19T03:31:33.437Z,100420.03
2023-02-19T03:32:41.434Z,100425.06
2023-02-19T03:33:43.612Z,100420.59
2023-02-19T03:34:49.579Z,100424.88
2023-02-19T03:35:56.443Z,100414.66
2023-02-19T03:37:02.163Z,100415.88
2023-02-19T03:38:07.468Z,100433.44
2023-02-19T03:39:12.927Z,100433.81
2023-02-19T03:40:15.242Z,100434.69
2023-02-19T03:41:24.490Z,100441.34
2023-02-19T03:42:33.097Z,100419.56
2023-02-19T03:43:39.547Z,100420.88
2023-02-19T03:44:45.024Z,100433.16
2023-02-19T03:45:54.660Z,100429.50
2023-02-19T03:47:03.563Z,100432.97
2023-02-19T03:48:20.580Z,100429.56
2023-02-19T03:49:24.890Z,100443.34
2023-02-19T03:50:30.797Z,100439.28
2023-02-19T03:51:39.169Z,100431.84
2023-02-19T03:52:44.393Z,100436.84
2023-02-19T03:53:52.568Z,100436.47
2023-02-19T03:54:59.386Z,100441.09
2023-02-19T03:56:07.570Z,100434.97
2023-02-19T03:57:15.995Z,100453.72
2023-02-19T03:58:21.240Z,100450.50
2023-02-19T03:59:28.843Z,100444.28
2023-02-19T04:00:32.844Z,100451.72
2023-02-19T04:01:40.730Z,100457.00
2023-02-19T04:02:46.746Z,100453.16
2023-02-19T04:03:54.869Z,100461.34
2023-02-19T04:04:59.450Z,100473.41
2023-02-19T04:06:04.976Z,100461.44
2023-02-19T04:07:06.932Z,100464.53
2023-02-19T04:08:13.564Z,100455.25
2023-02-19T04:09:15.662Z,100454.75
2023-02-19T04:10:19.029Z,100453.63
2023-02-19T04:11:21.593Z,100445.69
2023-02-19T04:12:24.804Z,100457.41
2023-02-19T04:13:30.446Z,100446.25
2023-02-19T04:14:36.786Z,100461.19
2023-02-19T04:15:41.741Z,100445.22
2023-02-19T04:16:48.579Z,100445.34
2023-02-19T04:17:53.603Z,100449.50
2023-02-19T04:19:00.777Z,100452.03
2023-02-19T04:20:05.526Z,100445.63
2023-02-19T04:21:09.110Z,100452.69
2023-02-19T04:22:12.540Z,100446.38
2023-02-19T04:23:17.615Z,100449.84
2023-02-19T04:24:22.344Z,100456.47
2023-02-19T04:25:25.558Z,100460.13
2023-02-19T04:26:29.899Z,100442.03
2023-02-19T04:27:32.814Z,100449.75
2023-02-19T04:28:34.887Z,100472.03
2023-02-19T04:29:39.233Z,100454.59
2023-02-19T04:30:41.325Z,100462.22
2023-02-19T04:31:44.219Z,100461.66
2023-02-19T04:32:48.594Z,100460.13
2023-02-19T04:33:51.329Z,100456.19
2023-02-19T04:34:54.498Z,100461.00
2023-02-19T04:35:57.190Z,100464.03
2023-02-19T04:36:59.879Z,100472.44
2023-02-19T04:38:01.562Z,100468.78
2023-02-19T04:39:04.272Z,100468.78
2023-02-19T04:40:06.800Z,100470.66
2023-02-19T04:41:10.627Z,100466.91
2023-02-19T04:42:13.404Z,100470.50
2023-02-19T04:43:15.090Z,100467.00
2023-02-19T04:44:17.877Z,100474.97
2023-02-19T04:45:19.570Z,100464.28
2023-02-19T04:46:22.370Z,100465.38
2023-02-19T04:47:24.116Z,100465.88
2023-02-19T04:48:26.898Z,100458.78
2023-02-19T04:49:28.852Z,100446.50
2023-02-19T04:50:32.978Z,100465.00
2023-02-19T04:51:34.743Z,100470.19
2023-02-19T04:52:37.506Z,100463.03
2023-02-19T04:53:39.201Z,100451.94
2023-02-19T04:54:41.994Z,100465.53
2023-02-19T04:55:43.701Z,100466.84
2023-02-19T04:56:46.419Z,100456.28
2023-02-19T04:57:48.214Z,100469.59
2023-02-19T04:58:50.991Z,100472.88
2023-02-19T04:59:52.802Z,100466.47
2023-02-19T05:00:55.459Z,100472.88
2023-02-19T05:01:57.886Z,100487.25
2023-02-19T05:03:00.952Z,100488.16
2023-02-19T05:04:04.892Z,100495.03
2023-02-19T05:05:07.864Z,100501.38
2023-02-19T05:06:13.218Z,100510.03
2023-02-19T05:07:16.171Z,100485.88
2023-02-19T05:08:17.941Z,100485.53
2023-02-19T05:09:20.966Z,100494.59
2023-02-19T05:10:22.688Z,100496.94
2023-02-19T05:11:25.393Z,100493.47
2023-02-19T05:12:27.128Z,100511.63
2023-02-19T05:13:30.044Z,100483.06
2023-02-19T05:14:32.932Z,100490.53
2023-02-19T05:15:34.736Z,100487.81
2023-02-19T05:16:37.420Z,100498.75
2023-02-19T05:17:39.143Z,100500.38
2023-02-19T05:18:42.385Z,100498.81
2023-02-19T05:19:44.267Z,100511.84
2023-02-19T05:20:46.936Z,100490.81
2023-02-19T05:21:50.022Z,100505.91
2023-02-19T05:22:52.844Z,100507.22
2023-02-19T05:23:54.511Z,100505.69
2023-02-19T05:24:57.232Z,100517.47
2023-02-19T05:25:58.963Z,100509.44
2023-02-19T05:27:01.755Z,100519.19
2023-02-19T05:28:17.077Z,100526.00
2023-02-19T05:29:19.891Z,100523.56
2023-02-19T05:30:21.645Z,100510.34
2023-02-19T05:31:24.805Z,100513.06
2023-02-19T05:32:26.650Z,100513.38
2023-02-19T05:33:29.354Z,100506.88
2023-02-19T05:34:31.260Z,100515.72
2023-02-19T05:35:33.985Z,100524.31
2023-02-19T05:36:37.165Z,100526.94
2023-02-19T05:37:41.183Z,100511.19
2023-02-19T05:38:43.272Z,100530.53
2023-02-19T05:39:45.977Z,100533.09
2023-02-19T05:40:48.096Z,100534.59
2023-02-19T05:41:50.805Z,100530.47
2023-02-19T05:42:52.481Z,100524.69
2023-02-19T05:43:55.656Z,100529.66
2023-02-19T05:44:57.353Z,100528.56
2023-02-19T05:46:00.274Z,100525.81
2023-02-19T05:47:02.992Z,100537.63
2023-02-19T05:48:05.746Z,100548.38
2023-02-19T05:49:08.459Z,100536.50
2023-02-19T05:50:10.236Z,100537.63
2023-02-19T05:51:14.202Z,100539.25
2023-02-19T05:52:15.937Z,100539.88
2023-02-19T05:53:20.019Z,100543.31
2023-02-19T05:54:21.701Z,100545.84
2023-02-19T05:55:24.498Z,100544.81
2023-02-19T05:56:34.172Z,100548.88
2023-02-19T05:57:43.431Z,100553.16
2023-02-19T05:58:45.432Z,100549.63
2023-02-19T05:59:48.072Z,100559.16
2023-02-19T06:00:49.841Z,100555.41
2023-02-19T06:01:53.936Z,100557.94
2023-02-19T06:02:55.774Z,100559.50
2023-02-19T06:03:58.856Z,100561.16
2023-02-19T06:05:00.608Z,100552.66
2023-02-19T06:06:04.671Z,100562.06
2023-02-19T06:07:06.332Z,100569.59
2023-02-19T06:08:09.002Z,100569.91
2023-02-19T06:09:12.288Z,100571.69
2023-02-19T06:10:14.981Z,100573.69
2023-02-19T06:11:16.950Z,100568.03
2023-02-19T06:12:19.630Z,100572.84
2023-02-19T06:13:21.312Z,100572.56
2023-02-19T06:14:24.040Z,100575.94
2023-02-19T06:15:25.771Z,100582.81
2023-02-19T06:16:28.786Z,100581.91
2023-02-19T06:17:30.639Z,100589.06
2023-02-19T06:18:33.404Z,100582.75
2023-02-19T06:19:35.121Z,100585.50
2023-02-19T06:20:37.779Z,100573.19
2023-02-19T06:21:39.535Z,100577.16
2023-02-19T06:22:42.206Z,100586.09
2023-02-19T06:23:44.330Z,100579.78
2023-02-19T06:24:48.913Z,100585.47
2023-02-19T06:25:50.579Z,100582.03
2023-02-19T06:26:53.328Z,100594.00
2023-02-19T06:27:55.131Z,100590.06
2023-02-19T06:28:57.773Z,100587.50
2023-02-19T06:29:59.626Z,100588.44
2023-02-19T06:31:02.438Z,100582.75
2023-02-19T06:32:04.906Z,100585.16
2023-02-19T06:33:07.613Z,100591.59
2023-02-19T06:34:09.399Z,100589.03
2023-02-19T06:35:12.223Z,100584.34
2023-02-19T06:36:15.616Z,100595.09
2023-02-19T06:37:18.300Z,100595.09
2023-02-19T06:38:21.362Z,100605.09
2023-02-19T06:39:24.063Z,100590.06
2023-02-19T06:40:27.137Z,100589.56
2023-02-19T06:41:29.885Z,100586.97
2023-02-19T06:42:32.054Z,100587.13
2023-02-19T06:43:35.524Z,100604.22
2023-02-19T06:44:37.295Z,100595.84
2023-02-19T06:45:39.973Z,100605.75
2023-02-19T06:46:41.714Z,100595.00
2023-02-19T06:47:44.423Z,100608.31
2023-02-19T06:48:46.261Z,100609.88
2023-02-19T06:49:48.988Z,100613.84
2023-02-19T06:50:50.646Z,100618.84
2023-02-19T06:51:53.432Z,100604.22
2023-02-19T06:52:55.189Z,100618.09
2023-02-19T06:53:58.267Z,100613.00
2023-02-19T06:54:59.967Z,100614.81
2023-02-19T06:56:06.766Z,100619.50
2023-02-19T06:57:08.613Z,100615.56
2023-02-19T06:58:11.337Z,100610.38
2023-02-19T06:59:16.957Z,100604.53
2023-02-19T07:00:19.038Z,100610.88
2023-02-19T07:01:21.860Z,100611.50
2023-02-19T07:02:23.557Z,100624.06
2023-02-19T07:03:27.239Z,100618.22
2023-02-19T07:04:29.118Z,100614.63
2023-02-19T07:05:31.821Z,100614.94
2023-02-19T07:06:34.442Z,100617.66
2023-02-19T07:07:37.137Z,100618.22
2023-02-19T07:08:38.902Z,100618.03
2023-02-19T07:09:41.615Z,100623.53
2023-02-19T07:10:43.423Z,100638.88
2023-02-19T07:11:47.507Z,100628.31
2023-02-19T07:12:49.299Z,100639.81
2023-02-19T07:13:55.766Z,100622.13
2023-02-19T07:14:58.703Z,100622.94
2023-02-19T07:16:01.538Z,100624.50
2023-02-19T07:17:04.666Z,100636.75
2023-02-19T07:18:10.300Z,100625.66
2023-02-19T07:19:13.001Z,100628.72
2023-02-19T07:20:14.682Z,100634.72
2023-02-19T07:21:18.486Z,100656.00
2023-02-19T07:22:20.147Z,100633.84
2023-02-19T07:23:22.821Z,100640.34
2023-02-19T07:24:25.492Z,100638.56
2023-02-19T07:25:27.313Z,100636.91
2023-02-19T07:26:29.971Z,100642.38
2023-02-19T07:27:33.046Z,100641.88
2023-02-19T07:28:35.784Z,100636.69
2023-02-19T07:29:38.537Z,100650.88
2023-02-19T07:30:40.277Z,100639.44
2023-02-19T07:31:44.047Z,100637.94
2023-02-19T07:32:45.843Z,100634.34
2023-02-19T07:33:49.120Z,100637.53
2023-02-19T07:34:50.844Z,100641.88
2023-02-19T07:35:53.538Z,100646.44
2023-02-19T07:36:56.162Z,100648.25
2023-02-19T07:37:57.836Z,100650.50
2023-02-19T07:39:00.981Z,100653.03
2023-02-19T07:40:02.791Z,100656.44
2023-02-19T07:41:06.591Z,100651.16
2023-02-19T07:42:09.217Z,100658.13
2023-02-19T07:43:12.286Z,100679.38
2023-02-19T07:44:16.797Z,100664.66
2023-02-19T07:45:18.545Z,100654.38
2023-02-19T07:46:21.404Z,100668.06
2023-02-19T07:47:23.150Z,100672.81
2023-02-19T07:48:26.081Z,100679.47
2023-02-19T07:49:28.765Z,100675.41
2023-02-19T07:50:31.260Z,100673.16
2023-02-19T07:51:34.006Z,100670.72
2023-02-19T07:52:35.720Z,100678.91
2023-02-19T07:53:38.390Z,100679.06
2023-02-19T07:54:40.124Z,100688.13
2023-02-19T07:55:42.806Z,100694.44
2023-02-19T07:56:45.534Z,100684.69
2023-02-19T07:57:47.280Z,100697.19
2023-02-19T07:58:51.292Z,100681.09
2023-02-19T07:59:53.179Z,100685.25
2023-02-19T08:00:55.927Z,100684.91
2023-02-19T08:02:16.185Z,100685.22
2023-02-19T08:03:18.008Z,100681.88
2023-02-19T08:04:20.705Z,100688.84
2023-02-19T08:05:22.469Z,100685.84
2023-02-19T08:06:25.150Z,100685.25
2023-02-19T08:07:31.463Z,100688.28
2023-02-19T08:08:34.313Z,100683.38
2023-02-19T08:09:38.097Z,100692.63
2023-02-19T08:10:58.393Z,100691.34
2023-02-19T08:12:18.750Z,100688.59
2023-02-19T08:13:22.859Z,100688.25
2023-02-19T08:14:28.016Z,100708.06
2023-02-19T08:15:29.865Z,100688.59
2023-02-19T08:16:42.671Z,100685.97
2023-02-19T08:17:45.106Z,100699.19
2023-02-19T08:18:48.878Z,100697.59
2023-02-19T08:19:50.564Z,100694.19
2023-02-19T08:20:53.403Z,100707.63
2023-02-19T08:21:56.025Z,100700.56
2023-02-19T08:22:57.745Z,100717.25
2023-02-19T08:24:00.423Z,100708.38
2023-02-19T08:25:02.148Z,100711.03
2023-02-19T08:26:05.010Z,100711.03
2023-02-19T08:27:07.299Z,100713.66
2023-02-19T08:28:11.760Z,100713.19
2023-02-19T08:29:14.552Z,100720.19
2023-02-19T08:30:17.968Z,100736.91
2023-02-19T08:31:20.889Z,100722.63
2023-02-19T08:32:22.760Z,100725.66
2023-02-19T08:33:25.434Z,100748.41
2023-02-19T08:34:28.119Z,100741.53
2023-02-19T08:35:29.800Z,100729.38
2023-02-19T08:36:32.596Z,100729.06
2023-02-19T08:37:34.350Z,100743.41
2023-02-19T08:38:37.712Z,100754.94
2023-02-19T08:39:39.458Z,100742.00
2023-02-19T08:40:42.192Z,100741.06
2023-02-19T08:41:44.886Z,100761.94
2023-02-19T08:42:46.668Z,100762.25
2023-02-19T08:43:49.946Z,100754.28
2023-02-19T08:44:51.731Z,100750.13
2023-02-19T08:45:56.503Z,100753.91
2023-02-19T08:46:59.242Z,100758.09
2023-02-19T08:48:01.030Z,100765.25
2023-02-19T08:49:03.712Z,100761.78
2023-02-19T08:50:06.620Z,100764.19
2023-02-19T08:51:11.169Z,100767.09
2023-02-19T08:52:13.197Z,100772.44
2023-02-19T08:53:15.872Z,100768.28
2023-02-19T08:54:17.777Z,100778.53
2023-02-19T08:55:20.616Z,100778.34
2023-02-19T08:56:22.479Z,100783.84
2023-02-19T08:57:25.699Z,100778.34
2023-02-19T08:58:27.412Z,100779.84
2023-02-19T08:59:30.478Z,100772.78
2023-02-19T09:00:32.291Z,100771.22
2023-02-19T09:01:36.433Z,100774.63
2023-02-19T09:02:39.197Z,100773.56
2023-02-19T09:03:41.468Z,100775.97
2023-02-19T09:04:44.202Z,100781.63
2023-02-19T09:05:46.867Z,100779.16
2023-02-19T09:06:49.584Z,100771.63
2023-02-19T09:07:51.280Z,100779.84
2023-02-19T09:08:53.975Z,100787.22
2023-02-19T09:09:55.650Z,100790.81
2023-02-19T09:10:59.803Z,100800.63
2023-02-19T09:12:01.500Z,100784.66
2023-02-19T09:13:04.196Z,100790.03
2023-02-19T09:14:07.680Z,100789.56
2023-02-19T09:15:10.710Z,100802.59
2023-02-19T09:16:13.482Z,100795.19
2023-02-19T09:17:17.611Z,100794.78
2023-02-19T09:18:19.391Z,100799.25
2023-02-19T09:19:22.153Z,100799.41
2023-02-19T09:20:23.880Z,100799.81
2023-02-19T09:21:26.946Z,100795.78
2023-02-19T09:22:28.629Z,100791.41
2023-02-19T09:23:31.471Z,100802.56
2023-02-19T09:24:33.204Z,100803.88
2023-02-19T09:25:35.890Z,100805.03
2023-02-19T09:26:38.637Z,100796.59
2023-02-19T09:27:41.511Z,100793.09
2023-02-19T09:28:43.288Z,100807.69
2023-02-19T09:29:46.339Z,100800.78
2023-02-19T09:30:49.079Z,100805.38
2023-02-19T09:31:50.933Z,100809.91
2023-02-19T09:32:55.511Z,100816.53
2023-02-19T09:33:57.203Z,100815.69
2023-02-19T09:34:59.871Z,100806.88
2023-02-19T09:36:02.307Z,100810.88
2023-02-19T09:37:04.998Z,100806.13
2023-02-19T09:38:07.107Z,100818.53
2023-02-19T09:39:12.594Z,100797.91
2023-02-19T09:40:21.343Z,100816.75
2023-02-19T09:41:27.786Z,100809.56
2023-02-19T09:42:31.495Z,100799.34
2023-02-19T09:43:34.862Z,100804.69
2023-02-19T09:44:38.539Z,100806.88
2023-02-19T09:45:42.010Z,100805.44
2023-02-19T09:46:45.292Z,100813.50
2023-02-19T09:47:48.317Z,100803.16
2023-02-19T09:48:52.067Z,100802.25
2023-02-19T09:49:56.873Z,100797.50
2023-02-19T09:50:59.748Z,100806.59
2023-02-19T09:52:07.597Z,100803.47
2023-02-19T09:53:14.291Z,100807.34
2023-02-19T09:54:22.150Z,100801.50
2023-02-19T09:55:32.548Z,100798.53
2023-02-19T09:56:35.813Z,100799.50
2023-02-19T09:57:37.721Z,100807.00
2023-02-19T09:58:45.253Z,100809.44
2023-02-19T09:59:49.635Z,100813.63
2023-02-19T10:00:53.954Z,100819.47
2023-02-19T10:01:59.764Z,100823.31
2023-02-19T10:03:06.026Z,100811.78
2023-02-19T10:04:11.334Z,100822.88
2023-02-19T10:05:14.020Z,100821.25
2023-02-19T10:06:21.737Z,100832.59
2023-02-19T10:07:25.671Z,100823.91
2023-02-19T10:08:27.539Z,100834.16
2023-02-19T10:09:31.322Z,100808.66
2023-02-19T10:10:35.719Z,100815.38
2023-02-19T10:11:37.605Z,100818.03
2023-02-19T10:12:42.470Z,100815.28
2023-02-19T10:13:46.207Z,100821.56
2023-02-19T10:14:51.339Z,100820.31
2023-02-19T10:15:56.092Z,100820.78
2023-02-19T10:16:59.489Z,100828.38
2023-02-19T10:18:02.170Z,100818.69
2023-02-19T10:19:11.126Z,100838.94
2023-02-19T10:20:17.098Z,100820.59
2023-02-19T10:21:23.116Z,100827.78
2023-02-19T10:22:26.467Z,100820.44
2023-02-19T10:23:28.213Z,100834.53
2023-02-19T10:24:31.134Z,100826.13
2023-02-19T10:25:34.231Z,100841.72
2023-02-19T10:26:36.923Z,100827.00
2023-02-19T10:27:38.779Z,100842.72
2023-02-19T10:28:41.504Z,100833.47
2023-02-19T10:29:44.082Z,100840.66
2023-02-19T10:30:50.401Z,100836.13
2023-02-19T10:32:14.483Z,100823.94
2023-02-19T10:33:17.758Z,100842.47
2023-02-19T10:34:22.165Z,100836.69
2023-02-19T10:35:26.355Z,100843.19
2023-02-19T10:36:32.107Z,100838.41
2023-02-19T10:37:34.586Z,100846.75
2023-02-19T10:38:39.386Z,100851.94
2023-02-19T10:39:42.891Z,100856.66
2023-02-19T10:40:46.517Z,100837.72
2023-02-19T10:41:48.790Z,100842.00
2023-02-19T10:42:54.840Z,100835.78
2023-02-19T10:44:06.572Z,100848.63
2023-02-19T10:45:18.947Z,100854.47
2023-02-19T10:46:24.207Z,100864.63
2023-02-19T10:47:26.973Z,100856.66
2023-02-19T10:48:31.840Z,100847.09
2023-02-19T10:49:36.158Z,100850.88
2023-02-19T10:50:44.479Z,100870.31
2023-02-19T10:51:47.790Z,100882.47
2023-02-19T10:52:52.591Z,100874.06
2023-02-19T10:54:06.933Z,100875.53
2023-02-19T10:55:20.849Z,100885.31
2023-02-19T10:56:25.399Z,100883.59
2023-02-19T10:57:32.657Z,100880.22
2023-02-19T10:58:37.724Z,100884.34
2023-02-19T10:59:49.578Z,100902.28
2023-02-19T11:01:14.970Z,100899.47
2023-02-19T11:02:19.317Z,100898.44
2023-02-19T11:03:22.356Z,100895.31
2023-02-19T11:04:25.904Z,100891.19
2023-02-19T11:05:27.648Z,100902.31
2023-02-19T11:06:33.418Z,100929.31
2023-02-19T11:07:36.736Z,100901.88
2023-02-19T11:08:55.351Z,100915.06
2023-02-19T11:09:57.502Z,100900.69
2023-02-19T11:11:00.220Z,100902.72
2023-02-19T11:12:01.965Z,100901.09
2023-02-19T11:13:06.144Z,100903.97
2023-02-19T11:14:16.689Z,100903.78
2023-02-19T11:15:21.340Z,100900.50
2023-02-19T11:16:24.897Z,100901.53
2023-02-19T11:17:29.432Z,100911.16
2023-02-19T11:18:32.583Z,100920.34
2023-02-19T11:19:37.930Z,100917.75
2023-02-19T11:20:48.251Z,100915.41
2023-02-19T11:21:51.953Z,100909.69
2023-02-19T11:22:59.117Z,100902.06
2023-02-19T11:24:03.663Z,100900.00
2023-02-19T11:25:07.144Z,100900.06
2023-02-19T11:26:18.897Z,100896.03
2023-02-19T11:27:24.100Z,100892.53
2023-02-19T11:28:31.636Z,100893.47
2023-02-19T11:29:35.715Z,100901.41
2023-02-19T11:30:40.117Z,100908.28
2023-02-19T11:31:42.884Z,100900.56
2023-02-19T11:32:44.636Z,100907.97
2023-02-19T11:33:54.314Z,100904.00
2023-02-19T11:35:17.926Z,100905.78
2023-02-19T11:36:31.928Z,100886.28
2023-02-19T11:37:35.044Z,100897.44
2023-02-19T11:38:37.740Z,100898.00
2023-02-19T11:39:40.897Z,100903.88
2023-02-19T11:40:47.268Z,100904.72
2023-02-19T11:42:13.845Z,100899.50
2023-02-19T11:43:38.669Z,100900.75
2023-02-19T11:44:47.864Z,100901.41
2023-02-19T11:45:54.329Z,100888.38
2023-02-19T11:47:02.079Z,100883.75
2023-02-19T11:48:30.911Z,100885.59
2023-02-19T11:49:40.387Z,100896.47
2023-02-19T11:50:53.170Z,100905.84
2023-02-19T11:52:17.150Z,100885.75
2023-02-19T11:53:28.826Z,100893.88
2023-02-19T11:54:48.585Z,100893.63
2023-02-19T11:55:57.492Z,100894.09
2023-02-19T11:57:09.709Z,100908.69
2023-02-19T11:58:33.768Z,100912.66
2023-02-19T11:59:43.628Z,100907.03
2023-02-19T12:00:52.943Z,100900.78
2023-02-19T12:02:17.119Z,100902.41
2023-02-19T12:03:35.430Z,100913.63
2023-02-19T12:05:05.482Z,100902.03
2023-02-19T12:06:20.763Z,100898.69
2023-02-19T12:07:35.397Z,100902.94
2023-02-19T12:08:51.855Z,100895.56
2023-02-19T12:10:05.259Z,100899.28
2023-02-19T12:11:29.848Z,100897.97
2023-02-19T12:12:53.484Z,100900.06
2023-02-19T12:14:17.633Z,100893.88
2023-02-19T12:15:50.146Z,100893.31
2023-02-19T12:16:55.028Z,100893.31
2023-02-19T12:18:16.906Z,100897.97
2023-02-19T12:19:39.946Z,100912.22
2023-02-19T12:20:48.190Z,100894.69
2023-02-19T12:22:02.437Z,100897.78
2023-02-19T12:23:25.538Z,100892.56